Terminal Aerodrome Forecast
Issued by NWS

Home | Current Version | Previous Version | Graphics & Text | Print | Product List | Glossary On
Versions: 1 2 3 4 5 6 7 8 9 10 11
447
FTUS43 KMPX 211720
TAFRWF
TAF
KRWF 211720Z 2118/2218 VRB04KT P6SM FEW040
     FM212200 03006KT P6SM SKC
     FM220800 13002KT P6SM SKC=

USA.gov is the U.S. government's official web portal to all federal, state and local government web resources and services.